createdAt,value
2023-03-04T07:18:47.746Z,68.05
2023-03-04T07:21:17.417Z,68.00
2023-03-04T07:23:45.291Z,67.52
2023-03-04T07:26:13.127Z,67.65
2023-03-04T07:28:42.766Z,67.48
2023-03-04T07:31:32.128Z,66.68
2023-03-04T07:34:06.758Z,66.45
2023-03-04T07:36:37.005Z,66.49
2023-03-04T07:39:05.855Z,67.88
2023-03-04T07:41:36.305Z,68.04
2023-03-04T07:44:07.040Z,67.18
2023-03-04T07:46:34.858Z,67.27
2023-03-04T07:49:02.209Z,68.15
2023-03-04T07:51:29.745Z,67.02
2023-03-04T07:54:01.048Z,66.69
2023-03-04T07:56:33.957Z,66.62
2023-03-04T07:59:02.215Z,66.05
2023-03-04T08:01:37.913Z,66.08
2023-03-04T08:04:07.983Z,65.93
2023-03-04T08:06:35.984Z,66.19
2023-03-04T08:09:07.708Z,66.17
2023-03-04T08:11:38.434Z,66.56
2023-03-04T08:14:06.321Z,67.02
2023-03-04T08:16:33.768Z,66.52
2023-03-04T08:19:04.180Z,65.66
2023-03-04T08:21:32.607Z,66.01
2023-03-04T08:24:07.863Z,65.34
2023-03-04T08:26:46.757Z,65.78
2023-03-04T08:29:24.767Z,66.35
2023-03-04T08:31:54.396Z,65.77
2023-03-04T08:34:27.407Z,65.07
2023-03-04T08:36:55.034Z,65.98
2023-03-04T08:39:22.476Z,64.82
2023-03-04T08:41:50.308Z,65.17
2023-03-04T08:44:17.676Z,65.06
2023-03-04T08:46:45.011Z,64.67
2023-03-04T08:49:14.445Z,64.56
2023-03-04T08:51:41.829Z,64.18
2023-03-04T08:54:09.149Z,63.69
2023-03-04T08:56:36.450Z,63.52
2023-03-04T08:59:04.109Z,63.51
2023-03-04T09:01:31.517Z,63.23
2023-03-04T09:03:58.916Z,63.63
2023-03-04T09:06:26.290Z,63.29
2023-03-04T09:08:53.623Z,63.56
2023-03-04T09:11:21.024Z,62.71
2023-03-04T09:13:48.447Z,63.74
2023-03-04T09:16:16.876Z,62.28
2023-03-04T09:18:44.367Z,61.75
2023-03-04T09:21:12.210Z,61.34
2023-03-04T09:23:40.973Z,60.78
2023-03-04T09:26:26.858Z,60.47
2023-03-04T09:28:59.636Z,60.65
2023-03-04T09:31:30.078Z,60.53
2023-03-04T09:33:59.484Z,59.89
2023-03-04T09:36:26.853Z,59.37
2023-03-04T09:38:54.198Z,59.10
2023-03-04T09:41:37.619Z,59.38
2023-03-04T09:44:43.218Z,60.70
2023-03-04T09:47:17.612Z,60.13
2023-03-04T09:50:01.267Z,59.20
2023-03-04T09:53:21.303Z,58.79
2023-03-04T09:55:53.000Z,59.03
2023-03-04T09:59:00.207Z,58.58
2023-03-04T10:01:42.617Z,58.64
2023-03-04T10:04:50.964Z,58.83
2023-03-04T10:07:33.416Z,59.77
2023-03-04T10:10:10.642Z,58.70
2023-03-04T10:12:42.814Z,57.95
2023-03-04T10:15:46.202Z,56.99
2023-03-04T10:18:48.370Z,57.27
2023-03-04T10:21:36.261Z,55.88
2023-03-04T10:24:18.789Z,56.35
2023-03-04T10:27:01.531Z,54.84
2023-03-04T10:29:32.637Z,54.94
2023-03-04T10:32:00.484Z,54.07
2023-03-04T10:34:28.169Z,53.62
2023-03-04T10:37:07.536Z,52.03
2023-03-04T10:39:46.291Z,51.40
2023-03-04T10:42:16.477Z,51.40
2023-03-04T10:45:01.072Z,50.30
2023-03-04T10:47:33.548Z,49.88
2023-03-04T10:50:05.650Z,50.10
2023-03-04T10:52:49.969Z,50.32
2023-03-04T10:55:28.410Z,49.39
2023-03-04T10:58:13.521Z,48.79
2023-03-04T11:00:41.247Z,48.24
2023-03-04T11:03:31.922Z,47.79
2023-03-04T11:06:13.367Z,47.62
2023-03-04T11:08:42.583Z,47.09
2023-03-04T11:11:42.950Z,45.56
2023-03-04T11:14:34.679Z,46.41
2023-03-04T11:17:45.355Z,46.86
2023-03-04T11:20:48.278Z,45.03
2023-03-04T11:23:39.517Z,44.57
2023-03-04T11:26:19.522Z,45.52
2023-03-04T11:29:31.621Z,44.42
2023-03-04T11:32:21.325Z,44.82
2023-03-04T11:35:25.344Z,43.58
2023-03-04T11:38:37.723Z,44.59
2023-03-04T11:41:19.191Z,43.90
2023-03-04T11:43:47.720Z,44.04
2023-03-04T11:47:22.837Z,42.93
2023-03-04T11:50:29.397Z,41.40
2023-03-04T11:53:34.086Z,41.38
2023-03-04T11:56:35.258Z,41.06
2023-03-04T11:59:54.398Z,39.64
2023-03-04T12:02:46.974Z,40.01
2023-03-04T12:06:06.244Z,39.35
2023-03-04T12:09:21.726Z,38.65
2023-03-04T12:12:33.599Z,38.35
2023-03-04T12:15:51.418Z,37.44
2023-03-04T12:18:55.838Z,38.40
2023-03-04T12:22:23.316Z,37.22
2023-03-04T12:25:53.728Z,36.87
2023-03-04T12:29:43.116Z,37.09
2023-03-04T12:33:02.576Z,36.51
2023-03-04T12:35:58.795Z,36.20
2023-03-04T12:38:53.599Z,36.89
2023-03-04T12:42:23.243Z,37.82
2023-03-04T12:45:43.857Z,36.83
2023-03-04T12:48:50.242Z,35.76
2023-03-04T12:52:18.117Z,35.61
2023-03-04T12:54:58.184Z,34.90
2023-03-04T12:57:31.636Z,35.55
2023-03-04T13:00:13.300Z,34.44
2023-03-04T13:03:09.299Z,33.99
2023-03-04T13:06:13.889Z,34.71
2023-03-04T13:09:24.075Z,34.28
2023-03-04T13:12:24.677Z,33.03
2023-03-04T13:15:10.221Z,32.12
2023-03-04T13:18:01.546Z,32.17
2023-03-04T13:20:41.884Z,33.12
2023-03-04T13:23:14.964Z,31.49
2023-03-04T13:26:32.911Z,31.73
2023-03-04T13:29:18.592Z,31.34
2023-03-04T13:32:12.671Z,31.38
2023-03-04T13:34:57.934Z,32.57
2023-03-04T13:37:37.029Z,32.58
2023-03-04T13:40:23.433Z,31.21
2023-03-04T13:42:51.383Z,32.10
2023-03-04T13:45:37.389Z,30.33
2023-03-04T13:48:33.146Z,30.71
2023-03-04T13:51:00.731Z,30.18
2023-03-04T13:54:08.092Z,30.35
2023-03-04T13:56:40.668Z,31.02
2023-03-04T13:59:07.745Z,31.16
2023-03-04T14:01:43.041Z,31.90
2023-03-04T14:04:56.292Z,32.19
2023-03-04T14:07:36.770Z,31.54
2023-03-04T14:10:12.333Z,31.65
2023-03-04T14:12:58.856Z,31.03
2023-03-04T14:15:32.108Z,31.78
2023-03-04T14:18:04.730Z,33.37
2023-03-04T14:20:39.600Z,32.72
2023-03-04T14:23:42.527Z,31.73
2023-03-04T14:26:18.056Z,32.78
2023-03-04T14:28:52.684Z,32.59
2023-03-04T14:31:25.105Z,32.73
2023-03-04T14:33:59.848Z,33.54
2023-03-04T14:36:29.581Z,32.99
2023-03-04T14:39:03.260Z,33.29
2023-03-04T14:41:39.413Z,33.53
2023-03-04T14:44:40.508Z,32.31
2023-03-04T14:47:45.350Z,33.54
2023-03-04T14:50:20.178Z,34.63
2023-03-04T14:53:26.119Z,33.66
2023-03-04T14:56:10.575Z,35.12
2023-03-04T14:58:53.432Z,35.16
2023-03-04T15:01:32.414Z,34.55
2023-03-04T15:04:05.867Z,34.57
2023-03-04T15:06:39.222Z,34.86
2023-03-04T15:09:25.409Z,34.21
2023-03-04T15:12:08.299Z,34.80
2023-03-04T15:15:24.784Z,35.08
2023-03-04T15:18:22.990Z,33.62
2023-03-04T15:21:20.203Z,33.19
2023-03-04T15:23:47.964Z,33.13
2023-03-04T15:26:15.394Z,32.35
2023-03-04T15:28:43.410Z,31.73
2023-03-04T15:31:24.158Z,30.72
2023-03-04T15:33:52.533Z,31.67
2023-03-04T15:36:23.992Z,32.02
2023-03-04T15:38:53.569Z,32.12
2023-03-04T15:41:28.033Z,32.88
2023-03-04T15:43:55.578Z,32.30
2023-03-04T15:46:23.107Z,32.96
2023-03-04T15:48:50.818Z,33.00
2023-03-04T15:51:23.151Z,32.97
2023-03-04T15:53:57.600Z,32.49
2023-03-04T15:56:31.773Z,32.37
2023-03-04T15:59:16.579Z,31.74
2023-03-04T16:01:44.147Z,32.48
2023-03-04T16:04:17.647Z,32.83
2023-03-04T16:06:50.385Z,33.34
2023-03-04T16:09:21.079Z,33.60
2023-03-04T16:11:48.573Z,34.32
2023-03-04T16:14:17.084Z,34.49
2023-03-04T16:16:46.487Z,34.69
2023-03-04T16:19:13.801Z,35.32
2023-03-04T16:21:41.580Z,36.10
2023-03-04T16:24:19.933Z,36.18
2023-03-04T16:26:48.425Z,35.76
2023-03-04T16:29:16.854Z,36.41
2023-03-04T16:31:44.363Z,36.68
2023-03-04T16:34:11.999Z,37.00
2023-03-04T16:36:39.513Z,37.85
2023-03-04T16:39:22.763Z,37.57
2023-03-04T16:41:51.625Z,37.85
2023-03-04T16:44:19.144Z,38.43
2023-03-04T16:46:46.532Z,38.57
2023-03-04T16:49:13.859Z,38.52
2023-03-04T16:51:50.239Z,38.69
2023-03-04T16:54:31.814Z,38.57
2023-03-04T16:57:00.208Z,39.40
2023-03-04T16:59:29.235Z,40.53
2023-03-04T17:01:57.174Z,40.58
2023-03-04T17:04:24.863Z,41.75
2023-03-04T17:06:52.385Z,41.98
2023-03-04T17:09:19.745Z,41.55
2023-03-04T17:11:47.322Z,42.94
2023-03-04T17:14:14.637Z,43.01
2023-03-04T17:16:42.719Z,43.02
2023-03-04T17:19:10.026Z,43.88
2023-03-04T17:21:37.303Z,44.21
2023-03-04T17:24:04.856Z,44.99
2023-03-04T17:26:32.648Z,45.02
2023-03-04T17:28:59.974Z,45.57
2023-03-04T17:31:27.312Z,45.11
2023-03-04T17:33:54.611Z,45.48
2023-03-04T17:36:22.118Z,45.77
2023-03-04T17:38:51.928Z,46.73
2023-03-04T17:41:19.697Z,46.72
2023-03-04T17:43:51.766Z,46.44
2023-03-04T17:46:25.541Z,47.09
2023-03-04T17:48:57.378Z,47.47
2023-03-04T17:51:38.694Z,47.89
2023-03-04T17:54:08.622Z,47.70
2023-03-04T17:56:39.897Z,47.66
2023-03-04T17:59:13.776Z,48.80
2023-03-04T18:01:41.680Z,48.37
2023-03-04T18:04:09.076Z,47.47
2023-03-04T18:06:36.407Z,48.62
2023-03-04T18:09:05.636Z,49.16
2023-03-04T18:11:38.699Z,48.97
2023-03-04T18:14:06.521Z,49.20
2023-03-04T18:16:34.764Z,49.37
2023-03-04T18:19:02.938Z,49.53
2023-03-04T18:21:30.785Z,49.63
2023-03-04T18:23:58.640Z,49.30
2023-03-04T18:26:27.177Z,49.73
2023-03-04T18:28:56.850Z,50.09
2023-03-04T18:31:31.636Z,50.07
2023-03-04T18:34:02.624Z,50.38
2023-03-04T18:36:30.682Z,49.90
2023-03-04T18:38:59.536Z,50.17
2023-03-04T18:41:27.866Z,49.91
2023-03-04T18:43:55.696Z,50.60
2023-03-04T18:46:46.936Z,50.62
2023-03-04T18:49:15.582Z,50.34
2023-03-04T18:51:42.987Z,50.68
2023-03-04T18:54:10.514Z,51.27
2023-03-04T18:56:58.660Z,50.63
2023-03-04T19:00:02.471Z,51.64
2023-03-04T19:02:52.671Z,51.01
2023-03-04T19:05:30.019Z,51.27
2023-03-04T19:07:57.450Z,50.97
2023-03-04T19:10:25.813Z,51.23
2023-03-04T19:12:53.158Z,51.21
2023-03-04T19:15:20.526Z,50.86
2023-03-04T19:17:47.870Z,50.95
2023-03-04T19:20:16.240Z,51.94
2023-03-04T19:22:44.479Z,52.17
2023-03-04T19:25:12.605Z,52.44
2023-03-04T19:27:40.001Z,52.30
2023-03-04T19:30:10.128Z,52.50
2023-03-04T19:32:37.647Z,52.50
2023-03-04T19:35:05.617Z,53.56
2023-03-04T19:37:33.091Z,55.02
2023-03-04T19:40:00.362Z,55.46
2023-03-04T19:42:27.804Z,55.84
2023-03-04T19:44:55.369Z,54.95
2023-03-04T19:47:22.700Z,54.59
2023-03-04T19:49:49.991Z,55.26
2023-03-04T19:52:17.318Z,55.73
2023-03-04T19:54:44.595Z,56.08
2023-03-04T19:57:11.922Z,56.07
2023-03-04T19:59:39.266Z,56.53
2023-03-04T20:02:06.570Z,55.75
2023-03-04T20:04:34.040Z,54.80
2023-03-04T20:07:01.384Z,55.09
2023-03-04T20:09:28.695Z,55.02
2023-03-04T20:11:59.083Z,55.31
2023-03-04T20:14:33.467Z,56.22
2023-03-04T20:17:06.834Z,56.34
2023-03-04T20:19:35.250Z,56.03
2023-03-04T20:22:05.676Z,56.47
2023-03-04T20:24:33.139Z,55.81
2023-03-04T20:27:00.862Z,55.91
2023-03-04T20:29:28.946Z,56.45
2023-03-04T20:31:56.429Z,56.96
2023-03-04T20:34:25.444Z,56.32
2023-03-04T20:36:52.834Z,56.16
2023-03-04T20:39:29.237Z,56.43
2023-03-04T20:41:58.912Z,56.08
2023-03-04T20:44:27.044Z,56.97
2023-03-04T20:46:54.398Z,57.13
2023-03-04T20:49:28.668Z,57.55
2023-03-04T20:52:09.091Z,56.77
2023-03-04T20:54:39.042Z,56.99
2023-03-04T20:57:08.069Z,56.84
2023-03-04T20:59:38.977Z,57.48
2023-03-04T21:02:14.876Z,56.99
2023-03-04T21:04:43.882Z,57.45
2023-03-04T21:07:12.148Z,57.39
2023-03-04T21:09:39.463Z,57.69
2023-03-04T21:12:07.748Z,56.90
2023-03-04T21:14:35.106Z,56.32
2023-03-04T21:17:05.048Z,56.49
2023-03-04T21:19:43.488Z,56.67
2023-03-04T21:22:19.009Z,56.90
2023-03-04T21:24:47.920Z,56.28
2023-03-04T21:27:16.937Z,56.58
2023-03-04T21:29:44.703Z,57.31
2023-03-04T21:32:25.582Z,56.62
2023-03-04T21:34:55.198Z,56.95
2023-03-04T21:37:25.602Z,56.58
2023-03-04T21:39:54.850Z,56.64
2023-03-04T21:42:22.519Z,57.00
2023-03-04T21:44:51.484Z,57.13
2023-03-04T21:47:22.214Z,56.88
2023-03-04T21:49:50.278Z,56.75
2023-03-04T21:52:22.614Z,56.86
2023-03-04T21:54:50.156Z,57.48
2023-03-04T21:57:19.206Z,57.58
2023-03-04T21:59:46.794Z,56.77
2023-03-04T22:02:23.949Z,56.04
2023-03-04T22:04:51.329Z,55.80
2023-03-04T22:07:18.707Z,55.50
2023-03-04T22:09:47.066Z,55.69
2023-03-04T22:12:15.840Z,55.98
2023-03-04T22:14:43.776Z,55.97
2023-03-04T22:17:11.149Z,54.91
